createdAt,value
2017-11-11T00:00:02.824Z,2.97
2017-11-11T00:00:36.727Z,3.00
2017-11-11T00:01:10.614Z,3.28
2017-11-11T00:01:44.483Z,2.60
2017-11-11T00:02:18.344Z,3.45
2017-11-11T00:02:52.207Z,3.03
2017-11-11T00:03:26.980Z,3.20
2017-11-11T00:04:00.851Z,2.80
2017-11-11T00:04:34.728Z,2.87
2017-11-11T00:05:08.612Z,3.70
2017-11-11T00:05:42.504Z,3.75
2017-11-11T00:06:16.435Z,2.60
2017-11-11T00:06:50.317Z,3.78
2017-11-11T00:07:24.203Z,3.50
2017-11-11T00:07:58.108Z,2.90
2017-11-11T00:08:31.994Z,3.17
2017-11-11T00:09:05.904Z,2.85
2017-11-11T00:09:39.788Z,3.90
2017-11-11T00:10:13.675Z,3.35
2017-11-11T00:10:47.554Z,3.17
2017-11-11T00:11:21.450Z,3.58
2017-11-11T00:11:55.443Z,2.53
2017-11-11T00:12:29.320Z,2.90
2017-11-11T00:13:03.220Z,3.08
2017-11-11T00:13:37.150Z,2.30
2017-11-11T00:14:11.030Z,3.33
2017-11-11T00:14:44.918Z,2.58
2017-11-11T00:15:18.837Z,3.97
2017-11-11T00:15:52.721Z,4.65
2017-11-11T00:16:26.593Z,3.75
2017-11-11T00:17:00.477Z,2.67
2017-11-11T00:17:34.342Z,3.03
2017-11-11T00:18:08.480Z,2.55
2017-11-11T00:18:42.365Z,2.20
2017-11-11T00:19:16.263Z,2.45
2017-11-11T00:19:50.148Z,2.75
2017-11-11T00:20:24.056Z,2.97
2017-11-11T00:20:58.012Z,3.22
2017-11-11T00:21:31.911Z,3.10
2017-11-11T00:22:05.802Z,2.90
2017-11-11T00:22:39.695Z,2.83
2017-11-11T00:23:13.584Z,2.80
2017-11-11T00:23:47.482Z,3.20
2017-11-11T00:24:21.353Z,2.30
2017-11-11T00:24:55.313Z,2.70
2017-11-11T00:25:29.202Z,2.50
2017-11-11T00:26:03.080Z,2.72
2017-11-11T00:26:36.938Z,3.15
2017-11-11T00:27:10.802Z,3.53
2017-11-11T00:27:44.711Z,2.92
2017-11-11T00:28:18.598Z,2.72
2017-11-11T00:28:52.508Z,2.80
2017-11-11T00:29:26.380Z,2.97
2017-11-11T00:30:00.267Z,2.40
2017-11-11T00:30:34.159Z,3.03
2017-11-11T00:31:08.090Z,2.72
2017-11-11T00:31:42.006Z,3.00
2017-11-11T00:32:15.873Z,2.60
2017-11-11T00:32:49.736Z,2.97
2017-11-11T00:33:23.623Z,2.80
2017-11-11T00:33:57.521Z,2.78
2017-11-11T00:34:31.416Z,2.45
2017-11-11T00:35:05.312Z,2.72
2017-11-11T00:35:39.206Z,2.33
2017-11-11T00:36:13.103Z,3.53
2017-11-11T00:36:46.977Z,2.67
2017-11-11T00:37:20.872Z,3.42
2017-11-11T00:37:54.749Z,2.80
2017-11-11T00:38:28.671Z,2.80
2017-11-11T00:39:02.571Z,2.92
2017-11-11T00:39:36.456Z,3.47
2017-11-11T00:40:10.345Z,2.85
2017-11-11T00:40:44.256Z,3.15
2017-11-11T00:41:18.154Z,2.30
2017-11-11T00:41:52.054Z,2.60
2017-11-11T00:42:25.990Z,2.80
2017-11-11T00:42:59.879Z,3.03
2017-11-11T00:43:33.764Z,2.40
2017-11-11T00:44:07.681Z,3.12
2017-11-11T00:44:41.564Z,2.53
2017-11-11T00:45:15.505Z,2.55
2017-11-11T00:45:49.414Z,2.58
2017-11-11T00:46:23.317Z,3.08
2017-11-11T00:46:57.207Z,2.17
2017-11-11T00:47:31.096Z,2.80
2017-11-11T00:48:04.997Z,2.40
2017-11-11T00:48:38.892Z,2.25
2017-11-11T00:49:12.784Z,2.50
2017-11-11T00:49:46.689Z,3.08
2017-11-11T00:50:20.568Z,3.37
2017-11-11T00:50:54.463Z,2.87
2017-11-11T00:51:28.348Z,3.60
2017-11-11T00:52:02.216Z,3.20
2017-11-11T00:52:36.301Z,2.90
2017-11-11T00:53:10.182Z,3.08
2017-11-11T00:53:44.078Z,2.55
2017-11-11T00:54:17.981Z,2.33
2017-11-11T00:54:51.859Z,2.95
2017-11-11T00:55:25.742Z,2.80
2017-11-11T00:55:59.620Z,3.28
2017-11-11T00:56:33.509Z,2.90
2017-11-11T00:57:07.402Z,4.53
2017-11-11T00:57:41.295Z,3.67
2017-11-11T00:58:15.163Z,2.85
2017-11-11T00:58:49.046Z,2.97
2017-11-11T00:59:22.945Z,2.55
2017-11-11T00:59:56.827Z,2.20
2017-11-11T01:00:30.714Z,2.20
2017-11-11T01:01:04.605Z,2.70
2017-11-11T01:01:38.499Z,2.42
2017-11-11T01:02:12.386Z,3.03
2017-11-11T01:02:46.281Z,2.65
2017-11-11T01:03:20.174Z,2.50
2017-11-11T01:03:54.054Z,2.90
2017-11-11T01:04:27.974Z,3.17
2017-11-11T01:05:01.865Z,2.40
2017-11-11T01:05:35.732Z,2.47
2017-11-11T01:06:09.615Z,3.25
2017-11-11T01:06:43.533Z,2.72
2017-11-11T01:07:17.425Z,3.17
2017-11-11T01:07:51.317Z,3.70
2017-11-11T01:08:25.242Z,3.15
2017-11-11T01:08:59.138Z,3.33
2017-11-11T01:09:33.058Z,2.65
2017-11-11T01:10:06.948Z,2.87
2017-11-11T01:10:40.838Z,3.00
2017-11-11T01:11:14.738Z,3.65
2017-11-11T01:11:48.608Z,3.17
2017-11-11T01:12:22.492Z,3.10
2017-11-11T01:12:56.382Z,3.10
2017-11-11T01:13:30.261Z,2.60
2017-11-11T01:14:04.142Z,2.40
2017-11-11T01:14:38.051Z,2.60
2017-11-11T01:15:11.969Z,3.10
2017-11-11T01:15:45.861Z,3.10
2017-11-11T01:16:19.755Z,3.30
2017-11-11T01:16:53.635Z,2.80
2017-11-11T01:17:27.526Z,3.03
2017-11-11T01:18:01.403Z,3.85
2017-11-11T01:18:35.296Z,3.67
2017-11-11T01:19:09.157Z,3.65
2017-11-11T01:19:43.038Z,3.20
2017-11-11T01:20:17.061Z,3.40
2017-11-11T01:20:50.940Z,3.53
2017-11-11T01:21:24.839Z,3.40
2017-11-11T01:21:58.726Z,2.65
2017-11-11T01:22:32.617Z,3.15
2017-11-11T01:23:06.520Z,2.87
2017-11-11T01:23:40.389Z,3.50
2017-11-11T01:24:14.317Z,3.10
2017-11-11T01:24:48.213Z,3.53
2017-11-11T01:25:22.096Z,3.78
2017-11-11T01:25:55.997Z,3.80
2017-11-11T01:26:29.881Z,4.00
2017-11-11T01:27:03.763Z,3.65
2017-11-11T01:27:37.670Z,3.53
2017-11-11T01:28:11.557Z,3.83
2017-11-11T01:28:45.457Z,3.30
2017-11-11T01:29:19.331Z,3.35
2017-11-11T01:29:53.388Z,2.97
2017-11-11T01:30:27.276Z,3.15
2017-11-11T01:31:01.160Z,4.57
2017-11-11T01:31:35.129Z,4.60
2017-11-11T01:32:09.041Z,4.45
2017-11-11T01:32:42.943Z,3.50
2017-11-11T01:33:16.826Z,3.95
2017-11-11T01:33:50.712Z,3.85
2017-11-11T01:34:24.611Z,3.60
2017-11-11T01:34:58.522Z,3.40
2017-11-11T01:35:32.395Z,4.15
2017-11-11T01:36:06.283Z,3.45
2017-11-11T01:36:40.161Z,3.70
2017-11-11T01:37:14.046Z,4.07
2017-11-11T01:37:47.917Z,3.95
2017-11-11T01:38:21.814Z,4.05
2017-11-11T01:38:55.801Z,3.87
2017-11-11T01:39:29.744Z,4.45
2017-11-11T01:40:03.653Z,3.40
2017-11-11T01:40:37.538Z,3.20
2017-11-11T01:41:11.427Z,3.10
2017-11-11T01:41:45.326Z,3.60
2017-11-11T01:42:19.213Z,3.45
2017-11-11T01:42:53.085Z,3.75
2017-11-11T01:43:27.011Z,3.83
2017-11-11T01:44:00.885Z,3.03
2017-11-11T01:44:34.763Z,3.30
2017-11-11T01:45:08.668Z,3.40
2017-11-11T01:45:42.552Z,3.42
2017-11-11T01:46:16.422Z,3.85
2017-11-11T01:46:50.319Z,2.85
2017-11-11T01:47:24.242Z,3.28
2017-11-11T01:47:58.148Z,3.20
2017-11-11T01:48:32.040Z,3.28
2017-11-11T01:49:05.930Z,3.62
2017-11-11T01:49:39.827Z,3.30
2017-11-11T01:50:13.737Z,3.75
2017-11-11T01:50:47.633Z,3.15
2017-11-11T01:51:21.515Z,3.87
2017-11-11T01:51:55.427Z,2.83
2017-11-11T01:52:29.322Z,3.60
2017-11-11T01:53:03.208Z,3.10
2017-11-11T01:53:37.105Z,3.12
2017-11-11T01:54:10.987Z,3.67
2017-11-11T01:54:44.866Z,4.80
2017-11-11T01:55:18.751Z,4.65
2017-11-11T01:55:52.646Z,3.67
2017-11-11T01:56:26.550Z,3.75
2017-11-11T01:57:00.442Z,3.55
2017-11-11T01:57:34.333Z,3.30
2017-11-11T01:58:08.233Z,3.83
2017-11-11T01:58:42.121Z,3.90
2017-11-11T01:59:16.018Z,3.55
2017-11-11T01:59:49.918Z,3.50
2017-11-11T02:00:23.820Z,3.50
2017-11-11T02:00:57.698Z,3.80
2017-11-11T02:01:31.581Z,3.30
2017-11-11T02:02:05.493Z,3.60
2017-11-11T02:02:39.400Z,3.95
2017-11-11T02:03:13.299Z,3.60
2017-11-11T02:03:48.440Z,4.15
2017-11-11T02:04:22.339Z,3.40
2017-11-11T02:04:56.233Z,3.92
2017-11-11T02:05:30.678Z,3.97
2017-11-11T02:06:04.563Z,3.75
2017-11-11T02:06:38.458Z,3.17
2017-11-11T02:07:12.344Z,4.75
2017-11-11T02:07:46.244Z,4.43
2017-11-11T02:08:20.143Z,3.42
2017-11-11T02:08:54.118Z,3.80
2017-11-11T02:09:28.008Z,4.20
2017-11-11T02:10:01.893Z,3.87
2017-11-11T02:10:35.787Z,3.83
2017-11-11T02:11:09.663Z,3.97
2017-11-11T02:11:43.548Z,3.45
2017-11-11T02:12:17.436Z,4.18
2017-11-11T02:12:51.332Z,3.40
2017-11-11T02:13:25.234Z,3.50
2017-11-11T02:13:59.159Z,4.22
2017-11-11T02:14:33.028Z,3.25
2017-11-11T02:15:06.916Z,3.80
2017-11-11T02:15:40.822Z,3.83
2017-11-11T02:16:14.723Z,3.47
2017-11-11T02:16:48.594Z,3.50
2017-11-11T02:17:22.476Z,3.55
2017-11-11T02:17:56.378Z,3.53
2017-11-11T02:18:30.248Z,3.70
2017-11-11T02:19:04.130Z,3.65
2017-11-11T02:19:38.001Z,3.20
2017-11-11T02:20:11.892Z,4.18
2017-11-11T02:20:45.897Z,3.33
2017-11-11T02:21:19.783Z,3.65
2017-11-11T02:21:53.690Z,3.35
2017-11-11T02:22:27.561Z,3.22
2017-11-11T02:23:01.521Z,3.62
2017-11-11T02:23:36.002Z,3.60
2017-11-11T02:24:10.727Z,3.90
2017-11-11T02:24:46.042Z,3.78
2017-11-11T02:25:32.019Z,4.00
2017-11-11T02:26:06.760Z,4.37
2017-11-11T02:27:56.396Z,4.30
2017-11-11T02:28:30.285Z,4.32
2017-11-11T02:29:05.500Z,3.30
2017-11-11T02:29:42.230Z,4.30
2017-11-11T02:30:16.297Z,2.87
2017-11-11T02:30:50.168Z,3.80
2017-11-11T02:31:24.129Z,4.00
2017-11-11T02:33:01.868Z,3.83
2017-11-11T02:33:39.231Z,3.53
2017-11-11T02:34:14.036Z,4.80
2017-11-11T02:34:47.948Z,3.87
2017-11-11T02:35:22.515Z,4.18
2017-11-11T02:35:57.595Z,4.05
2017-11-11T02:36:31.500Z,3.42
2017-11-11T02:37:05.402Z,3.80
2017-11-11T02:37:39.317Z,3.53
2017-11-11T02:38:13.744Z,3.55
2017-11-11T02:38:47.674Z,3.20
2017-11-11T02:39:21.661Z,3.55
2017-11-11T02:39:58.839Z,4.32
2017-11-11T02:40:33.635Z,4.62
2017-11-11T02:41:08.974Z,4.18
2017-11-11T02:41:42.871Z,4.85
2017-11-11T02:42:18.843Z,2.62
2017-11-11T02:42:53.656Z,3.70
2017-11-11T02:43:29.125Z,3.20
2017-11-11T02:44:04.002Z,4.15
2017-11-11T02:44:37.887Z,2.90
2017-11-11T02:45:13.230Z,3.75
2017-11-11T02:45:47.117Z,3.95
2017-11-11T02:46:22.118Z,3.20
2017-11-11T02:46:57.311Z,4.20
2017-11-11T02:47:31.210Z,3.70
2017-11-11T02:48:05.137Z,3.20
2017-11-11T02:48:41.924Z,3.05
2017-11-11T02:49:16.991Z,3.85
2017-11-11T02:49:51.720Z,3.62
2017-11-11T02:50:26.614Z,3.22
2017-11-11T02:51:00.507Z,3.15
2017-11-11T02:51:34.391Z,3.70
2017-11-11T02:52:08.476Z,3.40
2017-11-11T02:52:42.374Z,3.10
2017-11-11T02:53:16.325Z,4.12
2017-11-11T02:53:50.221Z,3.83
2017-11-11T02:54:24.113Z,3.85
2017-11-11T02:54:59.449Z,2.97
2017-11-11T02:55:33.312Z,3.20
2017-11-11T02:56:08.110Z,3.60
2017-11-11T02:56:42.015Z,3.45
2017-11-11T02:57:15.904Z,2.85
2017-11-11T02:57:49.783Z,3.55
2017-11-11T02:58:23.705Z,3.28
2017-11-11T02:58:57.570Z,3.90
2017-11-11T02:59:31.442Z,3.62
2017-11-11T03:00:05.334Z,4.12
2017-11-11T03:00:39.229Z,3.42
2017-11-11T03:01:13.108Z,2.90
2017-11-11T03:01:47.366Z,2.80
2017-11-11T03:02:21.698Z,3.47
2017-11-11T03:02:55.641Z,3.45
2017-11-11T03:03:29.522Z,2.97
2017-11-11T03:04:03.421Z,3.40
2017-11-11T03:04:37.310Z,3.17
2017-11-11T03:05:11.208Z,3.65
2017-11-11T03:05:45.853Z,2.95
2017-11-11T03:06:20.564Z,3.55
2017-11-11T03:06:54.470Z,3.25
2017-11-11T03:07:28.350Z,3.92
2017-11-11T03:08:02.252Z,3.50
2017-11-11T03:08:36.114Z,3.87
2017-11-11T03:09:10.001Z,3.42
2017-11-11T03:09:43.877Z,3.95
2017-11-11T03:10:17.758Z,3.37
2017-11-11T03:10:51.664Z,3.17
2017-11-11T03:11:25.557Z,3.40
2017-11-11T03:11:59.442Z,3.12
2017-11-11T03:12:33.345Z,3.65
2017-11-11T03:13:07.236Z,3.30
2017-11-11T03:13:41.116Z,3.15
2017-11-11T03:14:14.984Z,3.33
2017-11-11T03:14:48.890Z,3.35
2017-11-11T03:15:22.783Z,4.07
2017-11-11T03:15:56.668Z,3.50
2017-11-11T03:16:30.568Z,2.92
2017-11-11T03:17:04.484Z,3.33
2017-11-11T03:17:38.393Z,3.00
2017-11-11T03:18:12.289Z,3.47
2017-11-11T03:18:46.182Z,3.20
2017-11-11T03:19:20.057Z,3.55
2017-11-11T03:19:53.950Z,4.12
2017-11-11T03:20:27.833Z,4.22
2017-11-11T03:21:01.704Z,4.65
2017-11-11T03:21:35.584Z,3.80
2017-11-11T03:22:09.459Z,3.87
2017-11-11T03:22:43.392Z,4.22
2017-11-11T03:23:17.309Z,3.58
2017-11-11T03:23:51.185Z,3.80
2017-11-11T03:24:25.139Z,4.80
2017-11-11T03:24:59.021Z,3.80
2017-11-11T03:25:32.919Z,3.67
2017-11-11T03:26:06.793Z,3.55
2017-11-11T03:26:40.672Z,3.60
2017-11-11T03:27:14.567Z,5.03
2017-11-11T03:27:48.464Z,3.47
2017-11-11T03:28:22.337Z,3.30
2017-11-11T03:28:56.206Z,4.00
2017-11-11T03:29:30.084Z,3.70
2017-11-11T03:30:03.953Z,3.95
2017-11-11T03:30:37.835Z,3.50
2017-11-11T03:31:11.719Z,3.40
2017-11-11T03:31:45.599Z,3.90
2017-11-11T03:32:19.472Z,3.75
2017-11-11T03:32:53.377Z,3.50
2017-11-11T03:33:27.264Z,3.45
2017-11-11T03:34:01.138Z,3.78
2017-11-11T03:34:35.023Z,4.05
2017-11-11T03:35:08.998Z,3.40
2017-11-11T03:35:42.887Z,3.50
2017-11-11T03:36:16.781Z,4.03
2017-11-11T03:36:50.667Z,4.32
2017-11-11T03:37:24.564Z,3.30
2017-11-11T03:37:58.457Z,3.85
2017-11-11T03:38:32.356Z,3.40
2017-11-11T03:39:06.395Z,3.72
2017-11-11T03:39:40.266Z,4.07
2017-11-11T03:40:14.135Z,4.47
2017-11-11T03:40:48.082Z,3.30
2017-11-11T03:41:21.947Z,3.92
2017-11-11T03:41:55.896Z,3.53
2017-11-11T03:42:29.797Z,3.67
2017-11-11T03:43:03.683Z,3.83
2017-11-11T03:43:37.553Z,4.05
2017-11-11T03:44:11.452Z,3.92
2017-11-11T03:44:45.337Z,3.62
2017-11-11T03:45:19.234Z,4.05
2017-11-11T03:45:53.124Z,3.30
2017-11-11T03:46:26.992Z,3.47
2017-11-11T03:47:00.872Z,3.33
2017-11-11T03:47:34.748Z,3.87
2017-11-11T03:48:08.650Z,4.70
2017-11-11T03:48:42.525Z,3.75
2017-11-11T03:49:16.424Z,3.30
2017-11-11T03:49:50.306Z,3.25
2017-11-11T03:50:24.185Z,3.75
2017-11-11T03:50:58.049Z,3.90
2017-11-11T03:51:31.937Z,4.00
2017-11-11T03:52:05.821Z,4.30
2017-11-11T03:52:39.706Z,4.25
2017-11-11T03:53:53.812Z,3.35
2017-11-11T03:54:27.698Z,3.50
2017-11-11T03:55:01.591Z,3.85
2017-11-11T03:55:35.532Z,4.10
2017-11-11T03:56:09.408Z,3.85
2017-11-11T03:56:43.288Z,3.60
2017-11-11T03:57:17.158Z,3.53
2017-11-11T03:57:51.034Z,4.10
2017-11-11T03:58:24.928Z,3.80
2017-11-11T03:58:58.805Z,3.10
2017-11-11T03:59:32.704Z,3.45
2017-11-11T04:00:06.616Z,4.50
2017-11-11T04:00:40.504Z,4.03
2017-11-11T04:01:14.383Z,4.30
2017-11-11T04:01:48.266Z,3.90
2017-11-11T04:02:22.147Z,3.90
2017-11-11T04:02:56.048Z,3.78
2017-11-11T04:03:29.929Z,3.60
2017-11-11T04:04:03.823Z,3.60
2017-11-11T04:04:37.717Z,3.45
2017-11-11T04:05:11.589Z,3.65
2017-11-11T04:05:45.717Z,3.20
2017-11-11T04:06:19.603Z,3.35
2017-11-11T04:06:53.477Z,3.70
2017-11-11T04:07:27.370Z,3.40
2017-11-11T04:08:01.253Z,4.00
2017-11-11T04:08:35.180Z,3.83
2017-11-11T04:09:09.052Z,3.22
2017-11-11T04:09:42.941Z,3.30
2017-11-11T04:10:16.839Z,3.67
2017-11-11T04:10:50.738Z,3.45
2017-11-11T04:11:24.622Z,3.95
2017-11-11T04:11:58.512Z,3.03
2017-11-11T04:12:32.381Z,4.12
2017-11-11T04:13:06.250Z,3.75
2017-11-11T04:13:40.147Z,3.50
2017-11-11T04:14:14.020Z,3.75
2017-11-11T04:14:47.903Z,3.67
2017-11-11T04:15:21.790Z,4.50
2017-11-11T04:15:55.704Z,4.18
2017-11-11T04:16:29.579Z,3.90
2017-11-11T04:17:03.481Z,3.90
2017-11-11T04:17:37.367Z,3.87
2017-11-11T04:18:11.267Z,3.30
2017-11-11T04:18:45.416Z,3.20
2017-11-11T04:19:19.302Z,3.92
2017-11-11T04:19:53.198Z,2.90
2017-11-11T04:20:27.083Z,3.05
2017-11-11T04:21:00.973Z,4.28
2017-11-11T04:21:34.861Z,4.15
2017-11-11T04:22:08.721Z,5.55
2017-11-11T04:22:42.624Z,3.20
2017-11-11T04:23:16.509Z,3.70
2017-11-11T04:23:50.411Z,3.80
2017-11-11T04:24:24.301Z,3.62
2017-11-11T04:24:58.201Z,3.45
2017-11-11T04:25:32.101Z,4.47
2017-11-11T04:26:05.991Z,4.03
2017-11-11T04:26:39.877Z,3.15
2017-11-11T04:27:13.763Z,3.42
2017-11-11T04:27:47.673Z,3.60
2017-11-11T04:28:21.551Z,3.30
2017-11-11T04:28:55.985Z,3.80
2017-11-11T04:29:29.864Z,3.50
2017-11-11T04:30:03.760Z,3.58
2017-11-11T04:30:37.633Z,3.95
2017-11-11T04:31:11.515Z,3.65
2017-11-11T04:31:45.412Z,3.50
2017-11-11T04:32:19.304Z,2.70
2017-11-11T04:32:53.204Z,3.42
2017-11-11T04:33:27.097Z,3.80
2017-11-11T04:34:01.446Z,3.10
2017-11-11T04:34:35.338Z,3.30
2017-11-11T04:35:09.263Z,3.53
2017-11-11T04:35:43.145Z,3.30
2017-11-11T04:36:17.053Z,3.45
2017-11-11T04:36:51.084Z,3.75
2017-11-11T04:37:25.002Z,3.42
2017-11-11T04:37:58.901Z,3.20
2017-11-11T04:38:32.782Z,3.10
2017-11-11T04:39:06.690Z,3.28
2017-11-11T04:39:40.585Z,3.60
2017-11-11T04:40:14.482Z,3.78
2017-11-11T04:40:48.376Z,2.87
2017-11-11T04:41:22.267Z,3.65
2017-11-11T04:41:56.164Z,3.87
2017-11-11T04:42:30.121Z,3.80
2017-11-11T04:43:04.017Z,3.47
2017-11-11T04:43:37.910Z,3.80
2017-11-11T04:44:11.812Z,3.55
2017-11-11T04:44:45.700Z,3.35
2017-11-11T04:45:19.585Z,3.20
2017-11-11T04:45:53.498Z,2.95
2017-11-11T04:46:27.382Z,3.97
2017-11-11T04:47:01.282Z,4.22
2017-11-11T04:47:35.176Z,4.10
2017-11-11T04:48:09.139Z,3.65
2017-11-11T04:48:43.029Z,4.05
2017-11-11T04:49:16.932Z,3.67
2017-11-11T04:49:50.822Z,3.35
2017-11-11T04:50:24.786Z,3.17
2017-11-11T04:50:58.687Z,4.30
2017-11-11T04:51:32.604Z,3.72
2017-11-11T04:52:06.516Z,3.80
2017-11-11T04:52:40.398Z,3.35
2017-11-11T04:53:14.308Z,3.40
2017-11-11T04:53:48.204Z,3.90
2017-11-11T04:54:22.147Z,4.70
2017-11-11T04:54:56.049Z,3.70
2017-11-11T04:55:29.943Z,4.03
2017-11-11T04:56:03.836Z,3.37
2017-11-11T04:56:37.734Z,4.35
2017-11-11T04:57:11.633Z,3.50
2017-11-11T04:57:45.529Z,4.28
2017-11-11T04:58:19.417Z,4.12
2017-11-11T04:58:53.314Z,3.78
2017-11-11T04:59:27.207Z,3.85
2017-11-11T05:00:01.198Z,4.18
2017-11-11T05:00:35.057Z,4.30
2017-11-11T05:01:08.965Z,5.05
2017-11-11T05:01:42.857Z,4.50
2017-11-11T05:02:16.751Z,3.90
2017-11-11T05:02:50.651Z,4.65
2017-11-11T05:03:24.544Z,3.25
2017-11-11T05:03:58.441Z,4.00
2017-11-11T05:04:32.385Z,4.53
2017-11-11T05:05:06.282Z,4.10
2017-11-11T05:05:40.180Z,3.75
2017-11-11T05:06:14.067Z,3.47
2017-11-11T05:06:47.996Z,4.10
2017-11-11T05:07:21.899Z,3.40
2017-11-11T05:07:55.933Z,4.35
2017-11-11T05:08:29.807Z,3.95
2017-11-11T05:09:03.717Z,3.47
2017-11-11T05:09:37.625Z,4.10
2017-11-11T05:10:11.503Z,4.37
2017-11-11T05:10:45.401Z,3.92
2017-11-11T05:11:19.301Z,3.87
2017-11-11T05:11:53.198Z,3.90
2017-11-11T05:12:27.177Z,3.10
2017-11-11T05:13:01.047Z,3.72
2017-11-11T05:13:34.912Z,4.00
2017-11-11T05:14:08.808Z,3.65
2017-11-11T05:14:42.690Z,3.58
2017-11-11T05:15:16.562Z,3.53
2017-11-11T05:15:50.454Z,3.60
2017-11-11T05:16:24.348Z,4.10
2017-11-11T05:16:58.243Z,4.15
2017-11-11T05:17:32.143Z,5.47
2017-11-11T05:18:06.039Z,3.90
2017-11-11T05:20:16.743Z,3.90
2017-11-11T05:20:50.624Z,3.30
2017-11-11T05:21:24.529Z,3.45
2017-11-11T05:21:58.404Z,3.55
2017-11-11T05:22:32.342Z,3.60
2017-11-11T05:23:06.243Z,3.47
2017-11-11T05:23:40.134Z,3.22
2017-11-11T05:24:14.026Z,4.20
2017-11-11T05:24:47.920Z,3.80
2017-11-11T05:25:21.811Z,3.78
2017-11-11T05:25:55.717Z,4.15
2017-11-11T05:26:29.603Z,3.25
2017-11-11T05:27:03.501Z,4.05
2017-11-11T05:27:37.395Z,3.80
2017-11-11T05:28:11.283Z,3.75
2017-11-11T05:28:45.182Z,4.32
2017-11-11T05:29:19.084Z,4.43
2017-11-11T05:29:52.973Z,4.43
2017-11-11T05:30:26.865Z,4.10
2017-11-11T05:31:00.763Z,4.65
2017-11-11T05:31:34.669Z,3.78
2017-11-11T05:32:08.563Z,3.55
2017-11-11T05:32:42.451Z,4.37
2017-11-11T05:33:16.336Z,4.32
2017-11-11T05:33:50.241Z,4.35
2017-11-11T05:34:24.140Z,4.07
2017-11-11T05:34:58.022Z,3.97
2017-11-11T05:35:32.015Z,4.00
2017-11-11T05:36:05.916Z,4.43
2017-11-11T05:36:39.816Z,4.10
2017-11-11T05:37:13.703Z,3.87
2017-11-11T05:37:47.614Z,4.28
2017-11-11T05:38:21.495Z,4.20
2017-11-11T05:38:55.389Z,4.10
2017-11-11T05:39:29.315Z,3.92
2017-11-11T05:40:03.213Z,3.30
2017-11-11T05:40:37.117Z,3.50
2017-11-11T05:41:10.978Z,3.75
2017-11-11T05:41:44.857Z,3.53
2017-11-11T05:42:18.749Z,3.65
2017-11-11T05:42:52.688Z,4.75
2017-11-11T05:43:26.576Z,4.03
2017-11-11T05:44:00.465Z,3.85
2017-11-11T05:44:34.368Z,3.10
2017-11-11T05:45:08.297Z,4.12
2017-11-11T05:45:42.232Z,3.62
2017-11-11T05:46:16.133Z,3.67
2017-11-11T05:46:50.008Z,2.80
2017-11-11T05:47:23.913Z,3.47
2017-11-11T05:47:57.797Z,3.50
2017-11-11T05:48:31.711Z,3.08
2017-11-11T05:49:05.588Z,4.00
2017-11-11T05:49:39.483Z,3.37
2017-11-11T05:50:13.370Z,3.50
2017-11-11T05:50:47.482Z,2.75
2017-11-11T05:51:21.385Z,3.62
2017-11-11T05:51:55.274Z,3.40
2017-11-11T05:52:29.164Z,3.55
2017-11-11T05:53:03.075Z,3.20
2017-11-11T05:53:36.954Z,3.65
2017-11-11T05:54:10.852Z,3.17
2017-11-11T05:54:44.748Z,3.10
2017-11-11T05:55:18.636Z,3.30
2017-11-11T05:55:52.532Z,2.95
2017-11-11T05:56:26.428Z,3.35
2017-11-11T05:57:00.326Z,3.35
2017-11-11T05:57:34.214Z,3.05
2017-11-11T05:58:08.148Z,3.35
2017-11-11T05:58:42.044Z,3.35
2017-11-11T05:59:15.935Z,3.33
2017-11-11T05:59:49.838Z,3.67
2017-11-11T06:00:23.798Z,2.90
2017-11-11T06:00:57.676Z,3.53
2017-11-11T06:01:31.583Z,3.00
2017-11-11T06:02:05.589Z,5.18
2017-11-11T06:02:39.611Z,4.10
2017-11-11T06:03:13.504Z,3.40
2017-11-11T06:03:47.387Z,3.55
2017-11-11T06:04:21.268Z,3.10
2017-11-11T06:04:55.290Z,3.40
2017-11-11T06:05:29.191Z,3.87
2017-11-11T06:06:03.088Z,3.35
2017-11-11T06:06:36.980Z,3.78
2017-11-11T06:07:50.306Z,3.55
2017-11-11T06:08:24.269Z,3.75
2017-11-11T06:08:58.216Z,3.53
2017-11-11T06:09:32.185Z,3.40
2017-11-11T06:10:06.116Z,3.10
2017-11-11T06:10:40.053Z,4.00
2017-11-11T06:11:14.002Z,3.00
2017-11-11T06:11:47.941Z,3.33
2017-11-11T06:12:21.898Z,4.07
2017-11-11T06:12:56.164Z,3.22
2017-11-11T06:13:30.096Z,5.55
2017-11-11T06:14:04.092Z,4.43
2017-11-11T06:14:38.058Z,4.50
2017-11-11T06:15:11.998Z,3.53
2017-11-11T06:15:45.950Z,3.15
2017-11-11T06:16:19.923Z,3.37
2017-11-11T06:16:53.869Z,3.47
2017-11-11T06:17:27.783Z,3.50
2017-11-11T06:18:01.726Z,3.78
2017-11-11T06:18:35.662Z,3.40
2017-11-11T06:19:09.594Z,3.12
2017-11-11T06:19:43.537Z,4.22
2017-11-11T06:20:17.518Z,3.37
2017-11-11T06:20:51.449Z,4.25
2017-11-11T06:21:25.402Z,3.22
2017-11-11T06:21:59.333Z,3.33
2017-11-11T06:22:33.277Z,3.47
2017-11-11T06:23:07.205Z,2.90
2017-11-11T06:23:41.134Z,3.97
2017-11-11T06:24:15.084Z,3.62
2017-11-11T06:24:49.017Z,3.30
2017-11-11T06:25:22.972Z,4.25
2017-11-11T06:25:56.909Z,4.00
2017-11-11T06:26:30.869Z,4.10
2017-11-11T06:27:04.807Z,3.58
2017-11-11T06:27:38.777Z,4.20
2017-11-11T06:28:12.711Z,3.95
2017-11-11T06:28:46.675Z,4.40
2017-11-11T06:29:20.648Z,3.90
2017-11-11T06:29:54.657Z,4.62
2017-11-11T06:30:28.623Z,11.07
2017-11-11T06:31:02.582Z,8.90
2017-11-11T06:31:36.552Z,7.65
2017-11-11T06:32:10.514Z,7.70
2017-11-11T06:32:44.442Z,5.97
2017-11-11T06:33:18.367Z,5.00
2017-11-11T06:33:52.318Z,5.45
2017-11-11T06:34:26.248Z,5.30
2017-11-11T06:35:00.179Z,3.92
2017-11-11T06:35:34.124Z,6.05
2017-11-11T06:36:08.140Z,6.78
2017-11-11T06:36:42.108Z,5.78
2017-11-11T06:37:16.053Z,9.65
2017-11-11T06:37:49.984Z,5.07
2017-11-11T06:38:23.941Z,6.37
2017-11-11T06:38:57.900Z,6.37
2017-11-11T06:39:31.891Z,5.78
2017-11-11T06:40:05.824Z,7.32
2017-11-11T06:40:39.747Z,4.37
2017-11-11T06:41:13.674Z,10.95
2017-11-11T06:41:47.628Z,13.23
2017-11-11T06:42:21.575Z,7.90
2017-11-11T06:42:55.559Z,4.78
2017-11-11T06:43:29.490Z,14.98
2017-11-11T06:44:03.440Z,6.93
2017-11-11T06:44:37.384Z,6.95
2017-11-11T06:45:11.329Z,10.68
2017-11-11T06:45:45.268Z,8.10
2017-11-11T06:46:19.240Z,15.85
2017-11-11T06:46:53.197Z,12.25
2017-11-11T06:47:27.154Z,18.65
2017-11-11T06:48:01.073Z,10.15
2017-11-11T06:48:35.010Z,6.05
2017-11-11T06:49:08.942Z,5.00
2017-11-11T06:49:42.946Z,4.90
2017-11-11T06:50:16.910Z,6.35
2017-11-11T06:50:51.028Z,9.63
2017-11-11T06:51:24.980Z,5.82
2017-11-11T06:51:58.922Z,8.40
2017-11-11T06:52:33.024Z,8.95
2017-11-11T06:53:06.978Z,11.20
2017-11-11T06:53:40.913Z,8.50
2017-11-11T06:54:15.020Z,5.65
2017-11-11T06:54:48.983Z,6.87
2017-11-11T06:55:22.917Z,12.07
2017-11-11T06:55:56.933Z,7.65
2017-11-11T06:56:30.900Z,5.22
2017-11-11T06:57:04.881Z,9.60
2017-11-11T06:57:38.832Z,9.95
2017-11-11T06:58:12.776Z,6.28
2017-11-11T06:58:46.719Z,12.73
2017-11-11T06:59:20.651Z,16.87
2017-11-11T06:59:54.589Z,12.40
2017-11-11T07:00:28.531Z,6.65
2017-11-11T07:01:02.470Z,3.70
2017-11-11T07:01:36.411Z,4.68
2017-11-11T07:02:10.358Z,13.77
2017-11-11T07:02:44.316Z,6.80
2017-11-11T07:03:18.250Z,9.57
2017-11-11T07:03:52.193Z,7.68
2017-11-11T07:04:26.216Z,5.75
2017-11-11T07:05:00.460Z,11.12
2017-11-11T07:05:34.403Z,8.02
2017-11-11T07:06:08.363Z,9.18
2017-11-11T07:06:42.453Z,6.78
2017-11-11T07:07:16.402Z,8.27
2017-11-11T07:07:50.336Z,6.78
2017-11-11T07:08:24.292Z,6.93
2017-11-11T07:08:58.254Z,5.78
2017-11-11T07:09:32.201Z,6.20
2017-11-11T07:10:06.150Z,4.85
2017-11-11T07:10:40.102Z,5.10
2017-11-11T07:11:14.037Z,7.62
2017-11-11T07:11:48.038Z,7.25
2017-11-11T07:12:22.034Z,8.50
2017-11-11T07:12:56.214Z,6.37
2017-11-11T07:13:30.174Z,7.70
2017-11-11T07:14:04.108Z,6.80
2017-11-11T07:14:38.051Z,5.40
2017-11-11T07:15:11.982Z,5.25
2017-11-11T07:15:45.943Z,4.62
2017-11-11T07:16:19.885Z,4.70
2017-11-11T07:16:53.819Z,4.20
2017-11-11T07:17:27.792Z,5.62
2017-11-11T07:18:01.771Z,4.70
2017-11-11T07:18:35.708Z,4.82
2017-11-11T07:19:09.727Z,5.45
2017-11-11T07:19:43.680Z,4.47
2017-11-11T07:20:17.648Z,8.05
2017-11-11T07:20:51.588Z,5.45
2017-11-11T07:21:25.987Z,5.87
2017-11-11T07:21:59.920Z,6.35
2017-11-11T07:22:33.908Z,4.95
2017-11-11T07:23:07.849Z,7.90
2017-11-11T07:23:41.788Z,6.28
2017-11-11T07:24:15.742Z,5.78
2017-11-11T07:24:49.697Z,6.12
2017-11-11T07:25:23.630Z,6.70
2017-11-11T07:25:57.581Z,5.07
2017-11-11T07:26:31.516Z,7.28
2017-11-11T07:27:05.456Z,5.50
2017-11-11T07:27:39.408Z,4.25
2017-11-11T07:28:13.346Z,5.47
2017-11-11T07:28:47.307Z,4.75
2017-11-11T07:29:21.274Z,5.68
2017-11-11T07:29:55.269Z,5.45
2017-11-11T07:30:29.236Z,6.28
2017-11-11T07:31:03.180Z,7.05
2017-11-11T07:31:37.138Z,7.87
2017-11-11T07:32:11.079Z,4.78
2017-11-11T07:32:45.036Z,6.43
2017-11-11T07:33:19.015Z,6.80
2017-11-11T07:33:52.994Z,5.40
2017-11-11T07:34:26.932Z,5.35
2017-11-11T07:35:00.897Z,6.10
2017-11-11T07:35:34.831Z,5.57
2017-11-11T07:36:08.783Z,5.40
2017-11-11T07:36:42.717Z,5.25